Time;durP1;ratioP1;P1;durP2;ratioP2;P2;SDS_P1;SDS_P2;PMS_P1;PMS_P2;Temp;Humidity;BMP_temperature;BMP_pressure;BME280_temperature;BME280_humidity;BME280_pressure;Samples;Min_cycle;Max_cycle;Signal;HPM_P1;HPM_P2
2023/04/12 00:01:49;;;;;;;0.40;0.40;;;;;;;;;;4997853;28;20565;-80
2023/04/12 00:04:15;;;;;;;0.10;0.10;;;;;;;;;;5014354;28;20050;-80
2023/04/12 00:06:47;;;;;;;0.73;0.73;;;;;;;;;;5014094;28;20060;-81
2023/04/12 00:09:13;;;;;;;3.05;2.85;;;;;;;;;;4997764;28;20413;-81
2023/04/12 00:11:38;;;;;;;0.40;0.40;;;;;;;;;;5015259;28;20091;-81
2023/04/12 00:14:04;;;;;;;0.20;0.20;;;;;;;;;;5015143;28;20034;-82
2023/04/12 00:16:29;;;;;;;1.55;1.45;;;;;;;;;;4997854;28;20061;-83
2023/04/12 00:18:56;;;;;;;0.30;0.30;;;;;;;;;;5015303;28;20030;-83
2023/04/12 00:21:22;;;;;;;0.10;0.10;;;;;;;;;;5015047;28;20381;-83
2023/04/12 00:23:48;;;;;;;0.32;0.32;;;;;;;;;;5013802;28;20034;-86
2023/04/12 00:26:14;;;;;;;0.17;0.17;;;;;;;;;;5013857;28;20418;-84
2023/04/12 00:28:41;;;;;;;1.00;1.00;;;;;;;;;;5014698;28;20077;-84
2023/04/12 00:31:07;;;;;;;0.10;0.10;;;;;;;;;;4997328;28;20057;-84
2023/04/12 00:33:36;;;;;;;0.95;0.95;;;;;;;;;;5014792;28;20052;-84
2023/04/12 00:36:02;;;;;;;0.20;0.20;;;;;;;;;;5014676;28;20034;-84
2023/04/12 00:38:27;;;;;;;0.20;0.20;;;;;;;;;;5013233;28;20438;-83
2023/04/12 00:40:53;;;;;;;0.20;0.20;;;;;;;;;;5013880;28;20053;-83
2023/04/12 00:43:19;;;;;;;0.10;0.10;;;;;;;;;;4996984;28;20036;-82
2023/04/12 00:45:45;;;;;;;0.10;0.10;;;;;;;;;;4996899;28;20042;-81
2023/04/12 00:48:11;;;;;;;0.10;0.10;;;;;;;;;;4997135;28;20037;-82
2023/04/12 00:50:37;;;;;;;0.10;0.10;;;;;;;;;;5014631;28;20101;-82
2023/04/12 00:53:02;;;;;;;0.30;0.30;;;;;;;;;;5013024;28;20042;-81
2023/04/12 00:55:28;;;;;;;0.45;0.40;;;;;;;;;;4998875;28;20093;-81
2023/04/12 00:57:53;;;;;;;0.10;0.10;;;;;;;;;;5018946;28;20030;-82
2023/04/12 01:00:19;;;;;;;0.63;0.63;;;;;;;;;;5018701;28;20037;-81
2023/04/12 01:02:45;;;;;;;0.20;0.20;;;;;;;;;;4997358;28;20042;-81
2023/04/12 01:05:13;;;;;;;0.30;0.30;;;;;;;;;;4996829;28;20026;-81
2023/04/12 01:07:54;;;;;;;0.10;0.10;;;;;;;;;;4996755;28;20038;-81
2023/04/12 01:10:31;;;;;;;0.75;0.75;;;;;;;;;;4996969;28;20095;-81
2023/04/12 01:13:09;;;;;;;0.45;0.45;;;;;;;;;;4996718;28;20120;-81
2023/04/12 01:15:38;;;;;;;0.17;0.17;;;;;;;;;;4996756;28;20498;-81
2023/04/12 01:18:07;;;;;;;0.10;0.10;;;;;;;;;;4980700;28;20041;-84
2023/04/12 01:20:38;;;;;;;0.10;0.10;;;;;;;;;;4996423;28;20045;-79
2023/04/12 01:23:21;;;;;;;0.52;0.52;;;;;;;;;;5013899;28;20068;-79
2023/04/12 01:25:47;;;;;;;0.20;0.20;;;;;;;;;;5014189;28;20091;-79
2023/04/12 01:28:19;;;;;;;2.30;2.20;;;;;;;;;;5012860;28;20033;-83
2023/04/12 01:30:46;;;;;;;0.20;0.20;;;;;;;;;;5013096;28;20034;-84
2023/04/12 01:33:12;;;;;;;0.20;0.20;;;;;;;;;;5013903;28;20037;-79
2023/04/12 01:35:39;;;;;;;0.10;0.10;;;;;;;;;;5013719;28;20030;-79
2023/04/12 01:38:05;;;;;;;0.20;0.20;;;;;;;;;;5012741;28;20042;-79
2023/04/12 01:40:31;;;;;;;0.10;0.10;;;;;;;;;;4996253;28;20026;-80
2023/04/12 01:43:23;;;;;;;1.85;1.75;;;;;;;;;;4996281;28;20488;-77
2023/04/12 01:45:48;;;;;;;0.17;0.17;;;;;;;;;;4991580;28;20448;-78
2023/04/12 01:48:14;;;;;;;0.20;0.20;;;;;;;;;;5013375;28;20042;-79
2023/04/12 01:50:51;;;;;;;0.25;0.25;;;;;;;;;;5013729;28;20057;-78
2023/04/12 01:53:19;;;;;;;0.30;0.30;;;;;;;;;;4996216;28;20041;-79
2023/04/12 01:55:46;;;;;;;0.20;0.20;;;;;;;;;;4996021;28;20038;-76
2023/04/12 01:58:14;;;;;;;0.13;0.13;;;;;;;;;;5013562;28;20034;-76
2023/04/12 02:00:41;;;;;;;0.32;0.32;;;;;;;;;;4995838;28;20417;-77
2023/04/12 02:03:07;;;;;;;0.35;0.35;;;;;;;;;;4995808;28;20033;-76
2023/04/12 02:05:33;;;;;;;0.32;0.32;;;;;;;;;;5013473;28;20113;-77
2023/04/12 02:08:01;;;;;;;0.20;0.20;;;;;;;;;;4994799;28;20069;-80
2023/04/12 02:10:27;;;;;;;0.10;0.10;;;;;;;;;;4995707;28;20041;-80
2023/04/12 02:12:53;;;;;;;0.10;0.10;;;;;;;;;;5013586;28;20034;-80
2023/04/12 02:15:20;;;;;;;0.73;0.73;;;;;;;;;;4995728;28;20041;-79
2023/04/12 02:17:45;;;;;;;0.80;0.80;;;;;;;;;;4995793;28;20037;-79
2023/04/12 02:20:11;;;;;;;0.20;0.20;;;;;;;;;;5013708;28;20438;-79
2023/04/12 02:22:36;;;;;;;1.92;1.27;;;;;;;;;;5011658;28;20366;-79
2023/04/12 02:25:05;;;;;;;0.60;0.60;;;;;;;;;;5013299;28;20042;-79
2023/04/12 02:27:30;;;;;;;0.20;0.20;;;;;;;;;;5013243;28;20489;-79
2023/04/12 02:29:57;;;;;;;0.93;0.90;;;;;;;;;;5013123;28;20044;-79
2023/04/12 02:32:23;;;;;;;0.20;0.20;;;;;;;;;;4995605;28;20117;-80
2023/04/12 02:34:50;;;;;;;0.20;0.20;;;;;;;;;;4995649;28;20462;-91
2023/04/12 02:37:20;;;;;;;3.50;1.95;;;;;;;;;;4995552;28;20029;-90
2023/04/12 02:39:46;;;;;;;0.10;0.10;;;;;;;;;;4995195;28;20049;-81
2023/04/12 02:42:12;;;;;;;0.10;0.10;;;;;;;;;;4978993;28;20040;-80
2023/04/12 02:44:40;;;;;;;4.20;3.92;;;;;;;;;;4995160;28;20080;-81
2023/04/12 02:47:13;;;;;;;0.20;0.20;;;;;;;;;;4995586;28;20452;-81
2023/04/12 02:49:41;;;;;;;0.73;0.73;;;;;;;;;;4995552;28;20068;-80
2023/04/12 02:52:07;;;;;;;3.20;3.03;;;;;;;;;;5011975;28;20057;-80
2023/04/12 02:54:40;;;;;;;0.10;0.10;;;;;;;;;;4980290;28;20026;-80
2023/04/12 02:57:10;;;;;;;0.68;0.68;;;;;;;;;;4979675;28;20132;-81
2023/04/12 02:59:42;;;;;;;0.28;0.28;;;;;;;;;;4995481;28;20065;-81
2023/04/12 03:02:19;;;;;;;0.20;0.20;;;;;;;;;;4992400;28;20042;-83
2023/04/12 03:04:45;;;;;;;0.15;0.15;;;;;;;;;;4994623;28;20060;-83
2023/04/12 03:07:15;;;;;;;;;;;;;;;;;;4995428;28;20033;-83
2023/04/12 03:09:48;;;;;;;0.10;0.10;;;;;;;;;;4996563;28;20320;-84
2023/04/12 03:12:15;;;;;;;0.10;0.10;;;;;;;;;;4994833;28;20033;-80
2023/04/12 03:14:50;;;;;;;0.10;0.10;;;;;;;;;;5016102;28;20133;-81
2023/04/12 03:17:17;;;;;;;0.35;0.35;;;;;;;;;;5012723;28;20084;-81
2023/04/12 03:19:42;;;;;;;0.10;0.10;;;;;;;;;;5013123;28;20041;-81
2023/04/12 03:22:08;;;;;;;0.10;0.10;;;;;;;;;;4995153;28;20038;-81
2023/04/12 03:24:37;;;;;;;0.20;0.20;;;;;;;;;;4994772;28;20429;-81
2023/04/12 03:27:04;;;;;;;1.65;1.55;;;;;;;;;;5012401;28;20041;-84
2023/04/12 03:29:32;;;;;;;0.23;0.23;;;;;;;;;;5011559;28;20034;-87
2023/04/12 03:31:58;;;;;;;1.70;1.65;;;;;;;;;;4995240;28;20056;-85
2023/04/12 03:34:31;;;;;;;0.10;0.10;;;;;;;;;;5011393;28;20045;-86
2023/04/12 03:37:02;;;;;;;0.10;0.10;;;;;;;;;;4994328;28;20044;-85
2023/04/12 03:39:37;;;;;;;0.43;0.43;;;;;;;;;;4994763;28;20033;-86
2023/04/12 03:42:05;;;;;;;0.10;0.10;;;;;;;;;;4994196;28;20048;-85
2023/04/12 03:44:31;;;;;;;0.10;0.10;;;;;;;;;;4994437;28;20042;-86
2023/04/12 03:46:59;;;;;;;0.50;0.50;;;;;;;;;;4978759;28;20420;-83
2023/04/12 03:49:31;;;;;;;0.20;0.20;;;;;;;;;;4994164;28;20132;-85
2023/04/12 03:51:57;;;;;;;3.63;3.45;;;;;;;;;;4993771;28;20034;-84
2023/04/12 03:54:24;;;;;;;1.95;1.85;;;;;;;;;;4995055;28;20104;-91
2023/04/12 03:57:03;;;;;;;0.30;0.30;;;;;;;;;;4994740;28;20505;-85
2023/04/12 03:59:36;;;;;;;0.20;0.20;;;;;;;;;;4994575;28;20432;-79
2023/04/12 04:02:02;;;;;;;0.10;0.10;;;;;;;;;;4993595;28;20265;-81
2023/04/12 04:04:30;;;;;;;0.20;0.20;;;;;;;;;;4994203;28;20092;-84
2023/04/12 04:07:01;;;;;;;1.10;0.65;;;;;;;;;;4993083;28;20080;-87
2023/04/12 04:09:32;;;;;;;0.10;0.10;;;;;;;;;;4994098;28;20077;-86
2023/04/12 04:11:57;;;;;;;0.10;0.10;;;;;;;;;;5010222;28;20038;-83
2023/04/12 04:14:24;;;;;;;0.20;0.20;;;;;;;;;;4993568;28;20061;-84
2023/04/12 04:16:50;;;;;;;0.10;0.10;;;;;;;;;;5011775;28;20037;-83
2023/04/12 04:19:17;;;;;;;0.10;0.10;;;;;;;;;;4991111;28;20037;-80
2023/04/12 04:21:45;;;;;;;0.10;0.10;;;;;;;;;;4989216;28;20040;-78
2023/04/12 04:24:12;;;;;;;0.10;0.10;;;;;;;;;;4999717;28;20034;-79
2023/04/12 04:26:44;;;;;;;0.20;0.20;;;;;;;;;;4993509;28;20196;-80
2023/04/12 04:29:19;;;;;;;0.20;0.20;;;;;;;;;;4993063;28;20061;-79
2023/04/12 04:31:46;;;;;;;0.10;0.10;;;;;;;;;;5011001;28;20123;-79
2023/04/12 04:34:13;;;;;;;0.10;0.10;;;;;;;;;;4993169;28;20046;-80
2023/04/12 04:36:42;;;;;;;0.65;0.65;;;;;;;;;;4994315;28;20039;-83
2023/04/12 04:39:08;;;;;;;0.20;0.20;;;;;;;;;;5000599;28;20061;-82
2023/04/12 04:41:39;;;;;;;0.10;0.10;;;;;;;;;;4973617;28;20069;-81
2023/04/12 04:44:09;;;;;;;0.10;0.10;;;;;;;;;;4973704;28;20097;-79
2023/04/12 04:46:38;;;;;;;0.30;0.30;;;;;;;;;;4973766;28;20110;-81
2023/04/12 04:49:04;;;;;;;0.10;0.10;;;;;;;;;;4983907;28;20053;-82
2023/04/12 04:51:30;;;;;;;0.30;0.30;;;;;;;;;;5006795;28;20037;-84
2023/04/12 04:53:58;;;;;;;0.10;0.10;;;;;;;;;;4986663;28;20521;-83
2023/04/12 04:56:23;;;;;;;0.20;0.20;;;;;;;;;;4991149;28;20034;-84
2023/04/12 04:58:51;;;;;;;0.70;0.70;;;;;;;;;;4974496;28;20041;-80
2023/04/12 05:01:18;;;;;;;0.10;0.10;;;;;;;;;;4993860;28;20038;-85
2023/04/12 05:03:48;;;;;;;0.10;0.10;;;;;;;;;;4998892;28;20033;-84
2023/04/12 05:06:16;;;;;;;0.10;0.10;;;;;;;;;;5005504;28;20038;-85
2023/04/12 05:08:42;;;;;;;0.10;0.10;;;;;;;;;;5002652;28;20282;-86
2023/04/12 05:11:07;;;;;;;0.55;0.55;;;;;;;;;;5023361;28;20093;-89
2023/04/12 05:13:33;;;;;;;0.10;0.10;;;;;;;;;;5014587;28;20444;-85
2023/04/12 05:15:58;;;;;;;0.10;0.10;;;;;;;;;;4998205;28;20105;-83
2023/04/12 05:18:23;;;;;;;0.10;0.10;;;;;;;;;;5013730;28;20449;-87
2023/04/12 05:20:49;;;;;;;0.20;0.20;;;;;;;;;;5004629;28;20030;-84
2023/04/12 05:23:16;;;;;;;0.10;0.10;;;;;;;;;;5017300;28;20038;-86
2023/04/12 05:25:45;;;;;;;0.20;0.20;;;;;;;;;;5014502;28;20556;-80
2023/04/12 05:28:13;;;;;;;;;;;;;;;;;;5006397;28;20037;-80
2023/04/12 05:30:39;;;;;;;1.85;1.48;;;;;;;;;;4988557;28;19914;-79
2023/04/12 05:33:06;;;;;;;0.20;0.20;;;;;;;;;;4984060;28;20030;-79
2023/04/12 05:35:34;;;;;;;0.25;0.25;;;;;;;;;;5007724;28;20155;-78
2023/04/12 05:37:59;;;;;;;0.10;0.10;;;;;;;;;;4997401;28;20025;-89
2023/04/12 05:40:25;;;;;;;4.13;3.80;;;;;;;;;;4999606;28;20375;-84
2023/04/12 05:42:52;;;;;;;0.10;0.10;;;;;;;;;;4992663;28;20034;-82
2023/04/12 05:45:18;;;;;;;0.10;0.10;;;;;;;;;;4998628;28;20044;-87
2023/04/12 05:47:43;;;;;;;0.10;0.10;;;;;;;;;;5006761;28;20105;-90
2023/04/12 05:50:09;;;;;;;0.20;0.20;;;;;;;;;;4992610;28;20022;-83
2023/04/12 05:52:35;;;;;;;0.10;0.10;;;;;;;;;;5010386;28;20808;-83
2023/04/12 05:55:02;;;;;;;0.10;0.10;;;;;;;;;;4982623;28;20034;-87
2023/04/12 05:57:28;;;;;;;0.32;0.32;;;;;;;;;;4973116;28;20062;-84
2023/04/12 05:59:54;;;;;;;0.38;0.38;;;;;;;;;;4987120;28;20107;-77
2023/04/12 06:02:21;;;;;;;0.10;0.10;;;;;;;;;;4985809;28;20046;-83
2023/04/12 06:04:47;;;;;;;9.00;3.72;;;;;;;;;;4974391;28;20049;-81
2023/04/12 06:07:16;;;;;;;0.10;0.10;;;;;;;;;;4990277;28;20405;-83
2023/04/12 06:09:41;;;;;;;0.10;0.10;;;;;;;;;;5009179;28;20061;-81
2023/04/12 06:12:07;;;;;;;0.10;0.10;;;;;;;;;;4992175;28;20119;-82
2023/04/12 06:14:34;;;;;;;0.10;0.10;;;;;;;;;;4992112;28;20389;-81
2023/04/12 06:17:00;;;;;;;0.30;0.30;;;;;;;;;;4992519;28;20052;-80
2023/04/12 06:19:26;;;;;;;0.13;0.13;;;;;;;;;;5009461;28;20496;-77
2023/04/12 06:21:51;;;;;;;0.20;0.20;;;;;;;;;;4995218;28;20026;-78
2023/04/12 06:24:18;;;;;;;0.10;0.10;;;;;;;;;;4989847;28;20524;-79
2023/04/12 06:26:46;;;;;;;0.10;0.10;;;;;;;;;;5006315;28;20677;-79
2023/04/12 06:29:12;;;;;;;0.43;0.43;;;;;;;;;;4989854;28;20030;-82
2023/04/12 06:31:37;;;;;;;0.10;0.10;;;;;;;;;;5008245;28;20440;-83
2023/04/12 06:34:03;;;;;;;0.10;0.10;;;;;;;;;;5005074;28;20026;-77
2023/04/12 06:36:29;;;;;;;0.10;0.10;;;;;;;;;;4988179;28;20029;-78
2023/04/12 06:38:54;;;;;;;0.10;0.10;;;;;;;;;;4994928;28;21029;-79
2023/04/12 06:41:20;;;;;;;0.22;0.22;;;;;;;;;;4999763;28;20038;-78
2023/04/12 06:43:57;;;;;;;1.33;1.30;;;;;;;;;;5012495;28;20128;-79
2023/04/12 06:46:26;;;;;;;0.10;0.10;;;;;;;;;;5006420;28;20568;-77
2023/04/12 06:48:54;;;;;;;0.10;0.10;;;;;;;;;;5004181;28;20038;-76
2023/04/12 06:51:21;;;;;;;1.38;1.30;;;;;;;;;;5011668;28;20096;-77
2023/04/12 06:53:46;;;;;;;0.17;0.17;;;;;;;;;;5013210;28;20030;-78
2023/04/12 06:56:12;;;;;;;0.20;0.20;;;;;;;;;;5017968;28;20537;-78
2023/04/12 06:58:39;;;;;;;0.10;0.10;;;;;;;;;;5010687;28;20030;-78
2023/04/12 07:01:05;;;;;;;0.10;0.10;;;;;;;;;;4993084;28;20053;-71
2023/04/12 07:03:32;;;;;;;0.10;0.10;;;;;;;;;;5011217;28;20042;-70
2023/04/12 07:05:58;;;;;;;0.20;0.20;;;;;;;;;;4994455;28;20179;-71
2023/04/12 07:08:24;;;;;;;0.80;0.80;;;;;;;;;;4993608;28;20022;-69
2023/04/12 07:10:53;;;;;;;0.10;0.10;;;;;;;;;;5005946;28;20120;-69
2023/04/12 07:13:19;;;;;;;0.10;0.10;;;;;;;;;;4980501;28;20022;-71
2023/04/12 07:15:45;;;;;;;0.15;0.15;;;;;;;;;;4995563;28;20052;-69
2023/04/12 07:18:11;;;;;;;0.55;0.55;;;;;;;;;;5011694;28;20556;-70
2023/04/12 07:20:36;;;;;;;0.45;0.45;;;;;;;;;;5010174;28;20045;-72
2023/04/12 07:23:02;;;;;;;0.20;0.20;;;;;;;;;;4990432;28;20073;-71
2023/04/12 07:25:28;;;;;;;0.20;0.20;;;;;;;;;;4975144;28;20030;-70
2023/04/12 07:27:53;;;;;;;0.20;0.20;;;;;;;;;;4990842;28;20045;-71
2023/04/12 07:30:19;;;;;;;0.77;0.77;;;;;;;;;;4996283;28;20069;-71
2023/04/12 07:32:44;;;;;;;0.30;0.30;;;;;;;;;;5002454;28;20038;-72
2023/04/12 07:35:10;;;;;;;0.32;0.30;;;;;;;;;;4991793;28;20121;-71
2023/04/12 07:37:36;;;;;;;0.65;0.57;;;;;;;;;;4974626;28;20061;-71
2023/04/12 07:40:01;;;;;;;0.10;0.10;;;;;;;;;;4974419;28;20038;-71
2023/04/12 07:42:27;;;;;;;0.10;0.10;;;;;;;;;;4974335;28;20088;-70
2023/04/12 07:44:52;;;;;;;0.20;0.20;;;;;;;;;;4991938;28;20046;-70
2023/04/12 07:47:18;;;;;;;1.45;1.35;;;;;;;;;;5006966;28;20040;-70
2023/04/12 07:49:43;;;;;;;0.20;0.20;;;;;;;;;;5005343;28;20080;-71
2023/04/12 07:52:08;;;;;;;0.10;0.10;;;;;;;;;;4984516;28;20041;-71
2023/04/12 07:54:34;;;;;;;0.10;0.10;;;;;;;;;;4999449;28;20041;-70
2023/04/12 07:57:01;;;;;;;0.40;0.40;;;;;;;;;;4999888;28;20647;-71
2023/04/12 07:59:26;;;;;;;0.10;0.10;;;;;;;;;;4981273;28;20065;-71
2023/04/12 08:01:52;;;;;;;0.15;0.15;;;;;;;;;;5007573;28;20084;-71
2023/04/12 08:04:17;;;;;;;0.10;0.10;;;;;;;;;;4994832;28;20030;-72
2023/04/12 08:06:45;;;;;;;0.25;0.25;;;;;;;;;;4981097;28;20856;-73
2023/04/12 08:09:10;;;;;;;0.20;0.20;;;;;;;;;;5001269;28;20034;-72
2023/04/12 08:11:36;;;;;;;0.52;0.52;;;;;;;;;;5004455;28;20520;-70
2023/04/12 08:14:01;;;;;;;0.10;0.10;;;;;;;;;;4990191;28;20555;-70
2023/04/12 08:16:27;;;;;;;0.20;0.20;;;;;;;;;;5001688;28;20120;-71
2023/04/12 08:18:53;;;;;;;0.20;0.20;;;;;;;;;;5001722;28;20081;-72
2023/04/12 08:21:20;;;;;;;0.68;0.68;;;;;;;;;;4998678;28;20042;-71
2023/04/12 08:23:45;;;;;;;0.80;0.75;;;;;;;;;;4983019;28;20022;-71
2023/04/12 08:26:11;;;;;;;0.28;0.28;;;;;;;;;;4983419;28;20046;-71
2023/04/12 08:28:37;;;;;;;0.20;0.20;;;;;;;;;;4999278;28;20410;-71
2023/04/12 08:31:03;;;;;;;0.20;0.20;;;;;;;;;;5000286;28;20033;-72
2023/04/12 08:33:28;;;;;;;1.75;1.48;;;;;;;;;;5009149;28;20075;-72
2023/04/12 08:35:53;;;;;;;0.20;0.20;;;;;;;;;;4982231;28;20040;-72
2023/04/12 08:38:19;;;;;;;0.20;0.20;;;;;;;;;;5001571;28;20424;-71
2023/04/12 08:40:46;;;;;;;0.10;0.10;;;;;;;;;;5002393;28;20044;-71
2023/04/12 08:43:11;;;;;;;0.20;0.20;;;;;;;;;;4987442;28;20124;-73
2023/04/12 08:45:37;;;;;;;0.20;0.20;;;;;;;;;;4987560;28;20172;-72
2023/04/12 08:48:04;;;;;;;0.20;0.20;;;;;;;;;;5000936;28;20026;-71
2023/04/12 08:50:31;;;;;;;0.20;0.20;;;;;;;;;;4982301;28;20034;-72
2023/04/12 08:52:58;;;;;;;0.20;0.20;;;;;;;;;;4981485;28;20041;-70
2023/04/12 08:55:24;;;;;;;0.43;0.43;;;;;;;;;;4997676;28;20063;-74
2023/04/12 08:57:51;;;;;;;0.50;0.50;;;;;;;;;;4991518;28;20108;-73
2023/04/12 09:00:18;;;;;;;0.20;0.20;;;;;;;;;;5009461;28;20038;-71
2023/04/12 09:02:45;;;;;;;0.68;0.45;;;;;;;;;;5005330;28;20039;-72
2023/04/12 09:05:13;;;;;;;0.20;0.20;;;;;;;;;;4993204;28;20123;-73
2023/04/12 09:07:38;;;;;;;0.32;0.20;;;;;;;;;;4956734;28;20481;-71
2023/04/12 09:10:04;;;;;;;0.63;0.63;;;;;;;;;;4990114;28;20042;-73
2023/04/12 09:12:30;;;;;;;1.20;0.88;;;;;;;;;;4990273;28;20033;-74
2023/04/12 09:15:09;;;;;;;0.20;0.20;;;;;;;;;;4990160;28;20397;-73
2023/04/12 09:17:37;;;;;;;0.20;0.20;;;;;;;;;;4988245;28;20087;-73
2023/04/12 09:20:15;;;;;;;0.20;0.20;;;;;;;;;;4990288;28;20377;-71
2023/04/12 09:22:45;;;;;;;0.28;0.28;;;;;;;;;;5008307;28;20034;-70
2023/04/12 09:25:11;;;;;;;0.20;0.20;;;;;;;;;;5008369;28;20025;-71
2023/04/12 09:27:46;;;;;;;0.32;0.30;;;;;;;;;;5007940;28;20033;-71
2023/04/12 09:30:13;;;;;;;0.95;0.82;;;;;;;;;;5007596;28;20462;-73
2023/04/12 09:32:38;;;;;;;0.20;0.20;;;;;;;;;;5004868;28;20030;-72
2023/04/12 09:35:04;;;;;;;0.20;0.20;;;;;;;;;;5007277;28;20079;-71
2023/04/12 09:37:30;;;;;;;0.20;0.20;;;;;;;;;;4990278;28;20030;-72
2023/04/12 09:40:03;;;;;;;0.47;0.47;;;;;;;;;;4990164;28;20032;-73
2023/04/12 09:42:29;;;;;;;0.20;0.20;;;;;;;;;;5008156;28;20478;-73
2023/04/12 09:44:55;;;;;;;0.65;0.50;;;;;;;;;;5007395;28;20038;-73
2023/04/12 09:47:20;;;;;;;0.40;0.40;;;;;;;;;;4991392;28;20061;-73
2023/04/12 09:49:46;;;;;;;0.75;0.73;;;;;;;;;;4988395;28;20121;-72
2023/04/12 09:52:12;;;;;;;0.20;0.20;;;;;;;;;;4996258;28;20049;-72
2023/04/12 09:54:39;;;;;;;0.30;0.30;;;;;;;;;;5006970;28;20116;-73
2023/04/12 09:57:06;;;;;;;0.20;0.20;;;;;;;;;;4989062;28;20088;-71
2023/04/12 09:59:34;;;;;;;0.20;0.20;;;;;;;;;;5008519;28;20029;-73
2023/04/12 10:02:00;;;;;;;0.30;0.30;;;;;;;;;;5008802;28;20531;-74
2023/04/12 10:04:26;;;;;;;0.20;0.20;;;;;;;;;;4974453;28;20026;-73
2023/04/12 10:06:51;;;;;;;0.20;0.20;;;;;;;;;;4989705;28;20042;-75
2023/04/12 10:09:17;;;;;;;2.20;2.10;;;;;;;;;;4989283;28;20402;-74
2023/04/12 10:11:43;;;;;;;0.28;0.28;;;;;;;;;;4989576;28;20049;-72
2023/04/12 10:14:09;;;;;;;0.20;0.20;;;;;;;;;;4974874;28;20034;-74
2023/04/12 10:16:35;;;;;;;0.90;0.45;;;;;;;;;;5002667;28;20052;-72
2023/04/12 10:19:01;;;;;;;0.20;0.20;;;;;;;;;;4995141;28;20038;-73
2023/04/12 10:21:27;;;;;;;0.40;0.40;;;;;;;;;;5013245;28;20072;-72
2023/04/12 10:23:53;;;;;;;0.20;0.20;;;;;;;;;;5012706;28;20560;-71
2023/04/12 10:26:19;;;;;;;1.13;1.05;;;;;;;;;;5013001;28;20038;-72
2023/04/12 10:28:45;;;;;;;0.43;0.43;;;;;;;;;;4995449;28;20110;-73
2023/04/12 10:31:29;;;;;;;5.82;1.05;;;;;;;;;;4995045;28;20042;-74
2023/04/12 10:33:55;;;;;;;0.20;0.20;;;;;;;;;;5012400;28;20125;-73
2023/04/12 10:36:41;;;;;;;3.08;1.08;;;;;;;;;;5012692;28;20117;-73
2023/04/12 10:39:08;;;;;;;0.45;0.45;;;;;;;;;;4983799;28;20030;-72
2023/04/12 10:41:34;;;;;;;0.30;0.30;;;;;;;;;;4974734;28;20046;-73
2023/04/12 10:44:18;;;;;;;0.20;0.20;;;;;;;;;;4992353;28;20042;-73
2023/04/12 10:46:44;;;;;;;0.63;0.47;;;;;;;;;;4992006;28;20042;-73
2023/04/12 10:49:10;;;;;;;0.60;0.60;;;;;;;;;;4991756;28;20089;-73
2023/04/12 10:51:36;;;;;;;0.30;0.30;;;;;;;;;;4974494;28;20085;-73
2023/04/12 10:54:06;;;;;;;0.20;0.20;;;;;;;;;;4974351;28;20788;-72
2023/04/12 10:56:39;;;;;;;2.10;0.47;;;;;;;;;;4991928;28;20038;-73
2023/04/12 10:59:08;;;;;;;0.43;0.40;;;;;;;;;;4991571;28;20069;-72
2023/04/12 11:01:39;;;;;;;0.57;0.50;;;;;;;;;;4975004;28;20030;-73
2023/04/12 11:04:05;;;;;;;1.40;0.70;;;;;;;;;;4992269;28;20105;-72
2023/04/12 11:06:42;;;;;;;0.85;0.85;;;;;;;;;;4992279;28;20508;-73
2023/04/12 11:09:43;;;;;;;0.20;0.20;;;;;;;;;;4983646;28;20108;-73
2023/04/12 11:12:14;;;;;;;0.30;0.30;;;;;;;;;;4974953;28;20034;-73
2023/04/12 11:14:45;;;;;;;0.35;0.35;;;;;;;;;;4992307;28;20085;-72
2023/04/12 11:17:14;;;;;;;2.58;1.00;;;;;;;;;;4992408;28;20037;-73
2023/04/12 11:19:40;;;;;;;0.30;0.30;;;;;;;;;;4992171;28;20046;-73
2023/04/12 11:22:15;;;;;;;0.47;0.45;;;;;;;;;;4991939;28;20034;-72
2023/04/12 11:24:46;;;;;;;0.40;0.40;;;;;;;;;;4988233;28;20180;-75
2023/04/12 11:27:11;;;;;;;1.20;0.55;;;;;;;;;;4970697;28;20129;-74
2023/04/12 11:29:37;;;;;;;1.38;0.40;;;;;;;;;;4989588;28;20522;-76
2023/04/12 11:32:08;;;;;;;0.50;0.50;;;;;;;;;;4972817;28;20042;-78
2023/04/12 11:34:34;;;;;;;1.35;0.45;;;;;;;;;;4980788;28;20029;-73
2023/04/12 11:37:03;;;;;;;4.03;1.00;;;;;;;;;;5009418;28;20070;-74
2023/04/12 11:39:28;;;;;;;0.20;0.20;;;;;;;;;;4991865;28;20034;-74
2023/04/12 11:41:54;;;;;;;3.28;0.90;;;;;;;;;;5009430;28;20393;-74
2023/04/12 11:44:21;;;;;;;2.17;0.40;;;;;;;;;;5009279;28;20037;-74
2023/04/12 11:46:47;;;;;;;0.57;0.57;;;;;;;;;;4980984;28;20042;-73
2023/04/12 11:49:19;;;;;;;3.15;2.10;;;;;;;;;;4989364;28;20509;-73
2023/04/12 11:51:45;;;;;;;0.20;0.20;;;;;;;;;;4989827;28;20073;-73
2023/04/12 11:54:12;;;;;;;3.13;0.70;;;;;;;;;;4989984;28;20421;-73
2023/04/12 11:56:38;;;;;;;0.20;0.20;;;;;;;;;;4989665;28;20069;-72
2023/04/12 11:59:04;;;;;;;0.63;0.50;;;;;;;;;;4989997;28;20085;-73
2023/04/12 12:01:33;;;;;;;2.72;0.85;;;;;;;;;;4992288;28;20030;-73
2023/04/12 12:03:59;;;;;;;0.30;0.30;;;;;;;;;;4991442;28;20050;-73
2023/04/12 12:06:26;;;;;;;0.10;0.10;;;;;;;;;;4972848;28;20092;-73
2023/04/12 12:08:52;;;;;;;0.38;0.38;;;;;;;;;;4972442;28;20035;-74
2023/04/12 12:11:22;;;;;;;0.93;0.30;;;;;;;;;;4991458;28;20133;-73
2023/04/12 12:13:53;;;;;;;0.28;0.28;;;;;;;;;;4990842;28;20125;-73
2023/04/12 12:16:22;;;;;;;3.05;0.40;;;;;;;;;;5000290;28;20041;-73
2023/04/12 12:18:48;;;;;;;0.60;0.50;;;;;;;;;;4988671;28;20038;-73
2023/04/12 12:21:15;;;;;;;0.20;0.20;;;;;;;;;;4997531;28;20041;-74
2023/04/12 12:23:43;;;;;;;0.20;0.20;;;;;;;;;;5000760;28;20052;-72
2023/04/12 12:26:09;;;;;;;0.97;0.83;;;;;;;;;;5006817;28;20088;-74
2023/04/12 12:28:38;;;;;;;0.80;0.68;;;;;;;;;;5005114;28;20280;-74
2023/04/12 12:31:09;;;;;;;0.35;0.35;;;;;;;;;;4989364;28;20490;-73
2023/04/12 12:33:38;;;;;;;0.80;0.80;;;;;;;;;;4990731;28;20040;-73
2023/04/12 12:36:05;;;;;;;7.25;1.63;;;;;;;;;;5007374;28;20026;-72
2023/04/12 12:38:35;;;;;;;0.20;0.20;;;;;;;;;;5003927;28;20394;-73
2023/04/12 12:41:13;;;;;;;0.22;0.22;;;;;;;;;;4971349;28;20121;-73
2023/04/12 12:43:43;;;;;;;3.03;1.30;;;;;;;;;;4984171;28;20046;-72
2023/04/12 12:46:08;;;;;;;0.77;0.57;;;;;;;;;;5002369;28;20114;-73
2023/04/12 12:48:37;;;;;;;0.30;0.30;;;;;;;;;;4990955;28;20058;-73
2023/04/12 12:51:03;;;;;;;0.30;0.30;;;;;;;;;;4990073;28;20127;-73
2023/04/12 12:53:29;;;;;;;0.28;0.28;;;;;;;;;;4990791;28;20604;-72
2023/04/12 12:55:54;;;;;;;0.45;0.35;;;;;;;;;;4988716;28;20437;-72
2023/04/12 12:58:20;;;;;;;3.63;1.58;;;;;;;;;;4994724;28;20470;-73
2023/04/12 13:00:45;;;;;;;0.47;0.43;;;;;;;;;;5006569;28;20042;-72
2023/04/12 13:03:11;;;;;;;2.40;0.65;;;;;;;;;;5002436;28;20026;-72
2023/04/12 13:05:37;;;;;;;0.85;0.70;;;;;;;;;;4960464;28;20113;-73
2023/04/12 13:08:02;;;;;;;0.40;0.40;;;;;;;;;;4988383;28;20036;-73
2023/04/12 13:10:28;;;;;;;0.20;0.20;;;;;;;;;;4987027;28;20046;-73
2023/04/12 13:12:53;;;;;;;1.08;1.08;;;;;;;;;;4987935;28;20089;-73
2023/04/12 13:15:19;;;;;;;0.75;0.40;;;;;;;;;;4987875;28;20046;-73
2023/04/12 13:17:44;;;;;;;0.20;0.20;;;;;;;;;;4970924;28;20033;-74
2023/04/12 13:20:10;;;;;;;0.57;0.57;;;;;;;;;;4988141;28;20502;-73
2023/04/12 13:22:35;;;;;;;0.30;0.30;;;;;;;;;;4987943;28;20037;-73
2023/04/12 13:25:01;;;;;;;0.57;0.57;;;;;;;;;;4988590;28;20035;-72
2023/04/12 13:27:26;;;;;;;0.25;0.25;;;;;;;;;;4993675;28;20148;-73
2023/04/12 13:29:52;;;;;;;0.20;0.20;;;;;;;;;;5007761;28;20076;-73
2023/04/12 13:32:17;;;;;;;6.88;0.52;;;;;;;;;;5007589;28;20066;-73
2023/04/12 13:34:43;;;;;;;1.00;0.40;;;;;;;;;;5005591;28;20046;-72
2023/04/12 13:37:08;;;;;;;1.48;0.80;;;;;;;;;;5006616;28;20104;-72
2023/04/12 13:39:35;;;;;;;0.20;0.20;;;;;;;;;;4994078;28;20104;-72
2023/04/12 13:42:01;;;;;;;0.20;0.20;;;;;;;;;;4986160;28;20042;-72
2023/04/12 13:44:26;;;;;;;2.60;0.68;;;;;;;;;;5004575;28;20544;-73
2023/04/12 13:46:52;;;;;;;1.63;0.98;;;;;;;;;;4994208;28;20034;-73
2023/04/12 13:49:17;;;;;;;0.43;0.35;;;;;;;;;;4986228;28;20034;-73
2023/04/12 13:51:43;;;;;;;0.50;0.50;;;;;;;;;;4970111;28;20433;-73
2023/04/12 13:54:08;;;;;;;0.95;0.47;;;;;;;;;;4954026;28;20092;-73
2023/04/12 13:56:34;;;;;;;0.50;0.43;;;;;;;;;;4986873;28;20098;-73
2023/04/12 13:58:59;;;;;;;0.75;0.32;;;;;;;;;;4990229;28;20052;-73
2023/04/12 14:01:25;;;;;;;0.52;0.50;;;;;;;;;;5007866;28;20030;-74
2023/04/12 14:03:52;;;;;;;0.22;0.22;;;;;;;;;;5007798;28;20469;-73
2023/04/12 14:06:18;;;;;;;0.22;0.22;;;;;;;;;;5009490;28;20033;-74
2023/04/12 14:08:43;;;;;;;0.32;0.32;;;;;;;;;;5007763;28;20456;-74
2023/04/12 14:11:09;;;;;;;0.30;0.30;;;;;;;;;;4987308;28;20049;-71
2023/04/12 14:13:34;;;;;;;0.28;0.28;;;;;;;;;;5009662;28;20042;-70
2023/04/12 14:15:59;;;;;;;0.55;0.35;;;;;;;;;;5008011;28;20022;-72
2023/04/12 14:18:25;;;;;;;0.32;0.32;;;;;;;;;;5009619;28;20046;-71
2023/04/12 14:20:53;;;;;;;0.25;0.25;;;;;;;;;;5008684;28;20041;-73
2023/04/12 14:23:24;;;;;;;0.37;0.37;;;;;;;;;;4989631;28;20042;-70
2023/04/12 14:25:50;;;;;;;0.20;0.20;;;;;;;;;;5007700;28;20184;-70
2023/04/12 14:28:16;;;;;;;0.13;0.13;;;;;;;;;;5009147;28;20121;-70
2023/04/12 14:30:44;;;;;;;0.30;0.30;;;;;;;;;;5007919;28;20030;-71
2023/04/12 14:33:11;;;;;;;0.45;0.45;;;;;;;;;;5009026;28;20033;-71
2023/04/12 14:35:36;;;;;;;0.63;0.57;;;;;;;;;;4991728;28;20500;-71
2023/04/12 14:38:03;;;;;;;1.30;0.88;;;;;;;;;;5009238;28;20069;-70
2023/04/12 14:40:29;;;;;;;0.50;0.50;;;;;;;;;;5006993;28;20030;-69
2023/04/12 14:42:55;;;;;;;0.82;0.80;;;;;;;;;;4991297;28;20088;-73
2023/04/12 14:45:20;;;;;;;0.20;0.20;;;;;;;;;;5008974;28;20041;-70